Time;durP1;ratioP1;P1;durP2;ratioP2;P2;SDS_P1;SDS_P2;PMS_P1;PMS_P2;Temp;Humidity;BMP_temperature;BMP_pressure;BME280_temperature;BME280_humidity;BME280_pressure;Samples;Min_cycle;Max_cycle;Signal;HPM_P1;HPM_P2
2022/04/04 00:01:23;;;;;;;3.75;3.00;;;;;;;;;;6123697;23;20060;-87
2022/04/04 00:03:49;;;;;;;5.35;2.95;;;;;;;;;;6125691;23;20029;-84
2022/04/04 00:06:15;;;;;;;4.13;2.85;;;;;;;;;;6126252;23;20014;-86
2022/04/04 00:08:41;;;;;;;11.68;2.88;;;;;;;;;;6125773;23;20018;-86
2022/04/04 00:11:07;;;;;;;5.82;3.65;;;;;;;;;;6123785;23;20022;-86
2022/04/04 00:13:33;;;;;;;6.45;3.55;;;;;;;;;;6126107;23;20018;-85
2022/04/04 00:15:59;;;;;;;4.43;2.60;;;;;;;;;;6124703;23;20025;-86
2022/04/04 00:18:26;;;;;;;8.38;2.88;;;;;;;;;;6123540;23;20037;-87
2022/04/04 00:20:52;;;;;;;3.92;2.72;;;;;;;;;;6123762;23;20355;-83
2022/04/04 00:23:18;;;;;;;6.60;2.85;;;;;;;;;;6099525;23;20026;-84
2022/04/04 00:25:45;;;;;;;3.58;3.17;;;;;;;;;;6124549;23;20017;-83
2022/04/04 00:28:12;;;;;;;4.55;2.83;;;;;;;;;;6099640;23;20017;-84
2022/04/04 00:30:38;;;;;;;3.28;2.55;;;;;;;;;;6099678;23;20363;-83
2022/04/04 00:33:04;;;;;;;6.43;3.38;;;;;;;;;;6123466;23;20022;-83
2022/04/04 00:35:30;;;;;;;4.63;3.08;;;;;;;;;;6099217;23;20042;-84
2022/04/04 00:37:58;;;;;;;6.40;3.30;;;;;;;;;;6100306;23;20026;-83
2022/04/04 00:40:25;;;;;;;5.57;2.90;;;;;;;;;;6123931;23;20021;-83
2022/04/04 00:42:52;;;;;;;5.07;2.92;;;;;;;;;;6124201;23;20352;-83
2022/04/04 00:45:18;;;;;;;4.03;2.90;;;;;;;;;;6124497;23;20041;-84
2022/04/04 00:47:44;;;;;;;8.82;3.53;;;;;;;;;;6099365;23;20022;-83
2022/04/04 00:50:10;;;;;;;5.22;3.05;;;;;;;;;;6123929;23;20048;-82
2022/04/04 00:52:36;;;;;;;3.40;3.10;;;;;;;;;;6124286;23;20030;-83
2022/04/04 00:55:03;;;;;;;6.53;3.55;;;;;;;;;;6124296;23;20018;-86
2022/04/04 00:57:29;;;;;;;5.20;3.60;;;;;;;;;;6124060;23;20045;-83
2022/04/04 00:59:55;;;;;;;4.68;3.28;;;;;;;;;;6123893;23;20447;-83
2022/04/04 01:02:21;;;;;;;6.65;4.63;;;;;;;;;;6124344;23;20022;-83
2022/04/04 01:04:48;;;;;;;5.47;4.18;;;;;;;;;;6123584;23;20014;-83
2022/04/04 01:07:14;;;;;;;5.70;4.22;;;;;;;;;;6124327;23;20024;-83
2022/04/04 01:09:40;;;;;;;6.57;4.60;;;;;;;;;;6098909;23;20017;-83
2022/04/04 01:12:07;;;;;;;6.45;3.53;;;;;;;;;;6123625;23;20060;-83
2022/04/04 01:14:42;;;;;;;8.27;4.50;;;;;;;;;;6099693;23;20057;-82
2022/04/04 01:17:09;;;;;;;5.20;4.43;;;;;;;;;;6123934;23;20018;-86
2022/04/04 01:19:35;;;;;;;8.30;3.85;;;;;;;;;;6098597;23;20467;-85
2022/04/04 01:22:05;;;;;;;11.93;4.45;;;;;;;;;;6123872;23;20145;-86
2022/04/04 01:24:31;;;;;;;4.95;3.92;;;;;;;;;;6099425;23;20450;-84
2022/04/04 01:26:57;;;;;;;8.52;4.68;;;;;;;;;;6099762;23;20022;-82
2022/04/04 01:29:23;;;;;;;5.95;4.18;;;;;;;;;;6099560;23;20013;-84
2022/04/04 01:31:50;;;;;;;8.77;4.63;;;;;;;;;;6099371;23;20054;-85
2022/04/04 01:34:20;;;;;;;6.80;4.63;;;;;;;;;;6098838;23;20049;-88
2022/04/04 01:36:46;;;;;;;7.07;4.82;;;;;;;;;;6099192;23;20018;-83
2022/04/04 01:39:12;;;;;;;15.18;4.95;;;;;;;;;;6123940;23;20014;-83
2022/04/04 01:41:38;;;;;;;8.32;5.43;;;;;;;;;;6123586;23;20025;-84
2022/04/04 01:44:04;;;;;;;7.18;5.57;;;3.70;99.90;;;;;;6124220;23;20026;-84
2022/04/04 01:46:30;;;;;;;7.90;5.68;;;;;;;;;;6123381;23;20463;-86
2022/04/04 01:48:58;;;;;;;11.52;6.00;;;;;;;;;;6125769;23;20084;-89
2022/04/04 01:51:24;;;;;;;9.23;6.07;;;;;;;;;;6128104;23;20331;-87
2022/04/04 01:53:50;;;;;;;10.93;6.65;;;;;;;;;;6103959;23;20048;-86
2022/04/04 01:56:17;;;;;;;12.75;7.22;;;;;;;;;;6128342;23;20021;-87
2022/04/04 01:58:43;;;;;;;12.52;6.72;;;;;;;;;;6103514;23;20029;-88
2022/04/04 02:01:10;;;;;;;11.35;7.65;;;;;;;;;;6128648;23;20020;-83
2022/04/04 02:03:36;;;;;;;12.95;6.90;;;;;;;;;;6104805;23;20025;-83
2022/04/04 02:06:03;;;;;;;9.68;6.57;;;;;;;;;;6104954;23;20075;-83
2022/04/04 02:08:29;;;;;;;15.70;8.20;;;;;;;;;;6104409;23;20021;-84
2022/04/04 02:10:56;;;;;;;10.82;7.63;;;;;;;;;;6104597;23;20014;-83
2022/04/04 02:13:25;;;;;;;15.52;8.15;;;;;;;;;;6105698;23;20072;-85
2022/04/04 02:15:52;;;;;;;12.88;8.02;;;;;;;;;;6105816;23;20477;-83
2022/04/04 02:18:18;;;;;;;15.85;9.40;;;;;;;;;;6130324;23;20017;-87
2022/04/04 02:20:44;;;;;;;16.40;10.25;;;;;;;;;;6129519;23;20018;-84
2022/04/04 02:23:10;;;;;;;16.67;9.80;;;;;;;;;;6130070;23;20029;-83
2022/04/04 02:25:37;;;;;;;15.82;10.05;;;;;;;;;;6130272;23;20060;-83
2022/04/04 02:28:03;;;;;;;26.08;12.32;;;;;;;;;;6130546;23;20438;-87
2022/04/04 02:30:30;;;;;;;17.73;11.63;;;;;;;;;;6105485;23;20017;-90
2022/04/04 02:32:56;;;;;;;18.30;10.70;;;;;;;;;;6105393;23;20021;-88
2022/04/04 02:35:22;;;;;;;18.98;10.43;;;;;;;;;;6106133;23;20018;-85
2022/04/04 02:37:48;;;;;;;14.90;10.65;;;;;;;;;;6105226;23;20347;-84
2022/04/04 02:40:14;;;;;;;16.02;10.73;;;;;;;;;;6129887;23;20100;-84
2022/04/04 02:42:40;;;;;;;17.63;11.82;;;;;;;;;;6130218;23;20402;-86
2022/04/04 02:45:06;;;;;;;17.65;9.88;;;;;;;;;;6106526;23;20080;-84
2022/04/04 02:47:33;;;;;;;15.98;11.55;;;;;;;;;;6130906;23;20018;-83
2022/04/04 02:49:59;;;;;;;15.57;10.25;;;;;;;;;;6125735;23;20018;-84
2022/04/04 02:52:25;;;;;;;17.27;10.73;;;;;;;;;;6125366;23;20057;-86
2022/04/04 02:54:51;;;;;;;20.58;10.70;;;;;;;;;;6100252;23;20447;-85
2022/04/04 02:57:17;;;;;;;22.30;11.07;;;;;;;;;;6124671;23;20497;-83
2022/04/04 02:59:44;;;;;;;20.13;10.77;;;;;;;;;;6125267;23;20018;-84
2022/04/04 03:02:10;;;;;;;22.98;10.88;;;;;;;;;;6100874;23;20032;-83
2022/04/04 03:04:39;;;;;;;17.33;11.85;;;;;;;;;;6100686;23;20355;-84
2022/04/04 03:07:06;;;;;;;14.95;9.25;;;;;;;;;;6124924;23;20022;-83
2022/04/04 03:09:32;;;;;;;18.23;11.45;;;;;;;;;;6101298;23;20014;-84
2022/04/04 03:11:58;;;;;;;16.80;11.38;;;;;;;;;;6100568;23;20029;-84
2022/04/04 03:14:24;;;;;;;13.43;10.43;;;;;;;;;;6101123;23;20096;-83
2022/04/04 03:16:50;;;;;;;18.77;11.70;;;;;;;;;;6100649;23;20040;-86
2022/04/04 03:19:17;;;;;;;24.25;11.93;;;;;;;;;;6124777;23;20125;-83
2022/04/04 03:21:44;;;;;;;17.67;12.88;;;;;;;;;;6125251;23;20443;-83
2022/04/04 03:24:10;;;;;;;16.55;10.15;;;;;;;;;;6124741;23;20033;-82
2022/04/04 03:26:36;;;;;;;17.80;11.55;;;;;;;;;;6124829;23;20018;-82
2022/04/04 03:29:03;;;;;;;18.10;11.32;;;;;;;;;;6127296;23;20022;-87
2022/04/04 03:31:29;;;;;;;16.73;10.52;;;;;;;;;;6100498;23;20018;-83
2022/04/04 03:33:55;;;;;;;20.95;12.10;;;;;;;;;;6125120;23;20466;-83
2022/04/04 03:36:21;;;;;;;15.90;10.23;;;;;;;;;;6124797;23;20040;-83
2022/04/04 03:38:48;;;;;;;16.23;11.77;;;;;;;;;;6099490;23;20054;-84
2022/04/04 03:41:14;;;;;;;17.13;10.90;;;;;;;;;;6099948;23;20014;-83
2022/04/04 03:43:40;;;;;;;17.50;10.80;;;;;;;;;;6100170;23;20454;-85
2022/04/04 03:46:06;;;;;;;16.95;9.80;;;;;;;;;;6100308;23;20022;-83
2022/04/04 03:48:32;;;;;;;19.13;11.40;;;;;;;;;;6100365;23;20451;-86
2022/04/04 03:50:58;;;;;;;25.17;12.05;;;;;;;;;;6099883;23;20065;-82
2022/04/04 03:53:24;;;;;;;19.70;11.25;;;;;;;;;;6099722;23;20477;-88
2022/04/04 03:55:51;;;;;;;20.77;11.65;;;;;;;;;;6124224;23;20094;-82
2022/04/04 03:58:17;;;;;;;19.60;10.73;;;;;;;;;;6099890;23;20025;-82
2022/04/04 04:00:43;;;;;;;15.68;9.60;;;;;;;;;;6100280;23;20010;-85
2022/04/04 04:03:09;;;;;;;21.45;11.23;;;;;;;;;;6099981;23;20025;-83
2022/04/04 04:05:36;;;;;;;16.67;11.10;;;;;;;;;;6124486;23;20014;-83
2022/04/04 04:08:02;;;;;;;24.10;10.95;;;;;;;;;;6100056;23;20033;-83
2022/04/04 04:10:28;;;;;;;27.42;12.30;;;;;;;;;;6099718;23;20586;-83
2022/04/04 04:12:55;;;;;;;26.95;12.93;;;;;;;;;;6100310;23;20018;-82
2022/04/04 04:15:23;;;;;;;16.23;9.25;;;;;;;;;;6100293;23;20100;-84
2022/04/04 04:17:53;;;;;;;14.65;9.35;;;;;;;;;;6124429;23;20026;-83
2022/04/04 04:20:19;;;;;;;18.38;9.60;;;;;;;;;;6126380;23;20014;-83
2022/04/04 04:22:56;;;;;;;21.38;11.52;;;;;;;;;;6101349;23;20466;-83
2022/04/04 04:25:23;;;;;;;23.02;11.40;;;;;;;;;;6126437;23;20018;-83
2022/04/04 04:27:50;;;;;;;15.25;10.07;;;;;;;;;;6124429;23;20037;-83
2022/04/04 04:30:16;;;;;;;15.35;10.55;;;;;;;;;;6124493;23;20097;-83
2022/04/04 04:32:44;;;;;;;23.85;11.20;;;;;;;;;;6124638;23;20024;-83
2022/04/04 04:35:11;;;;;;;20.67;11.63;;;;;;;;;;6125270;23;20022;-83
2022/04/04 04:37:37;;;;;;;13.88;9.52;;;;;;;;;;6125980;23;20058;-83
2022/04/04 04:40:04;;;;;;;14.20;9.35;;;;;;;;;;6099311;23;20022;-83
2022/04/04 04:42:32;;;;;;;8.70;7.72;;;;;;;;;;6099585;23;20037;-82
2022/04/04 04:44:59;;;;;;;16.45;7.97;;;;;;;;;;6125071;23;20025;-84
2022/04/04 04:47:25;;;;;;;12.88;8.43;;;;;;;;;;6126617;23;20028;-83
2022/04/04 04:49:51;;;;;;;19.60;8.18;;;;;;;;;;6101822;23;20058;-85
2022/04/04 04:52:18;;;;;;;11.75;7.90;;;;;;;;;;6125658;23;20060;-82
2022/04/04 04:54:44;;;;;;;17.15;8.90;;;;;;;;;;6101246;23;20056;-84
2022/04/04 04:57:13;;;;;;;16.52;7.47;;;;;;;;;;6124851;23;20440;-83
2022/04/04 04:59:39;;;;;;;13.15;8.27;;;;;;;;;;6101319;23;20059;-83
2022/04/04 05:02:05;;;;;;;11.90;7.93;;;;;;;;;;6100638;23;20029;-83
2022/04/04 05:04:34;;;;;;;16.02;8.75;;;;;;;;;;6125388;23;20102;-82
2022/04/04 05:07:00;;;;;;;16.80;9.15;;;;;;;;;;6124934;23;20526;-83
2022/04/04 05:09:26;;;;;;;11.27;7.43;;;;;;;;;;6125013;23;20026;-82
2022/04/04 05:11:53;;;;;;;13.95;7.35;;;;;;;;;;6099968;23;20044;-83
2022/04/04 05:14:20;;;;;;;15.15;8.25;;;;;;;;;;6124912;23;20493;-82
2022/04/04 05:16:46;;;;;;;17.27;9.30;;;;;;;;;;6125622;23;20040;-82
2022/04/04 05:19:13;;;;;;;9.48;7.00;;;;;;;;;;6126416;23;20014;-83
2022/04/04 05:21:40;;;;;;;13.90;7.75;;;;;;;;;;6124954;23;20033;-83
2022/04/04 05:24:06;;;;;;;9.55;7.28;;;;;;;;;;6125448;23;20026;-83
2022/04/04 05:26:32;;;;;;;15.55;8.00;;;;;;;;;;6124991;23;20018;-83
2022/04/04 05:28:59;;;;;;;16.17;7.00;;;;;;;;;;6125927;23;20026;-85
2022/04/04 05:31:25;;;;;;;10.50;6.90;;;;;;;;;;6125686;23;20018;-83
2022/04/04 05:33:51;;;;;;;10.20;6.80;;;;;;;;;;6101481;23;20073;-83
2022/04/04 05:36:20;;;;;;;12.30;5.78;;;;;;;;;;6100914;23;20029;-82
2022/04/04 05:38:46;;;;;;;12.68;6.45;;;;;;;;;;6100978;23;20455;-83
2022/04/04 05:41:12;;;;;;;11.35;5.38;;;;;;;;;;6100244;23;20030;-83
2022/04/04 05:43:38;;;;;;;7.20;5.40;;;;;;;;;;6124389;23;20042;-83
2022/04/04 05:46:06;;;;;;;9.35;4.70;;;;;;;;;;6125440;23;20050;-82
2022/04/04 05:48:34;;;;;;;4.97;4.20;;;;;;;;;;6126610;23;20025;-82
2022/04/04 05:51:00;;;;;;;4.85;3.45;;;;;;;;;;6101994;23;20018;-83
2022/04/04 05:53:26;;;;;;;6.07;3.83;;;;;;;;;;6102265;23;20033;-83
2022/04/04 05:55:52;;;;;;;7.80;4.25;;;;;;;;;;6126845;23;20014;-83
2022/04/04 05:58:18;;;;;;;9.05;4.53;;;;;;;;;;6101872;23;20026;-83
2022/04/04 06:00:46;;;;;;;9.43;3.47;;;;;;;;;;6126673;23;20025;-83
2022/04/04 06:03:13;;;;;;;4.85;4.05;;;;;;;;;;6126479;23;20018;-83
2022/04/04 06:05:39;;;;;;;3.58;2.13;;;;;;;;;;6102095;23;20056;-84
2022/04/04 06:08:05;;;;;;;8.07;2.67;;;;;;;;;;6102469;23;20025;-84
2022/04/04 06:10:31;;;;;;;6.70;2.85;;;;;;;;;;6102505;23;20022;-83
2022/04/04 06:12:57;;;;;;;6.40;3.22;;;;;;;;;;6126248;23;20025;-84
2022/04/04 06:15:23;;;;;;;5.78;2.78;;;;;;;;;;6126840;23;20401;-83
2022/04/04 06:17:49;;;;;;;4.25;2.20;;;;;;;;;;6102129;23;20518;-83
2022/04/04 06:20:16;;;;;;;3.25;2.63;;;;;;;;;;6126136;23;20014;-84
2022/04/04 06:22:43;;;;;;;3.92;2.75;;;;;;;;;;6125970;23;20355;-83
2022/04/04 06:25:10;;;;;;;2.78;2.45;;;;;;;;;;6101724;23;20041;-84
2022/04/04 06:27:36;;;;;;;6.15;2.30;;;;;;;;;;6101109;23;20383;-83
2022/04/04 06:30:05;;;;;;;6.35;2.85;;;;;;;;;;6101101;23;20022;-83
2022/04/04 06:32:34;;;;;;;10.30;2.70;;;;;;;;;;6101446;23;20025;-83
2022/04/04 06:35:00;;;;;;;3.63;2.42;;;;;;;;;;6101574;23;20018;-82
2022/04/04 06:37:26;;;;;;;3.63;2.72;;;;;;;;;;6125736;23;20520;-83
2022/04/04 06:39:53;;;;;;;6.13;3.47;;;;;;;;;;6124929;23;20026;-83
2022/04/04 06:42:19;;;;;;;4.38;3.10;;;;;;;;;;6101311;23;20022;-83
2022/04/04 06:44:45;;;;;;;5.60;3.17;;;;;;;;;;6100730;23;20018;-83
2022/04/04 06:47:11;;;;;;;4.68;3.22;;;;;;;;;;6125504;23;20485;-84
2022/04/04 06:49:37;;;;;;;4.38;3.47;;;;;;;;;;6101560;23;20061;-84
2022/04/04 06:52:04;;;;;;;5.15;3.33;;;;;;;;;;6131498;23;20025;-83
2022/04/04 06:54:30;;;;;;;3.20;2.63;;;;;;;;;;6129433;23;20075;-82
2022/04/04 06:56:56;;;;;;;6.15;3.92;;;;;;;;;;6129592;23;20018;-85
2022/04/04 06:59:22;;;;;;;5.88;3.95;;;;;;;;;;6104148;23;20041;-85
2022/04/04 07:01:50;;;;;;;5.68;3.35;;;;;;;;;;6129091;23;20018;-82
2022/04/04 07:04:16;;;;;;;7.93;4.13;;;;;;;;;;6106655;23;20018;-82
2022/04/04 07:06:42;;;;;;;11.75;5.00;;;;;;;;;;6106369;23;20076;-82
2022/04/04 07:09:09;;;;;;;10.02;4.68;;;;;;;;;;6129251;23;20057;-82
2022/04/04 07:11:36;;;;;;;12.02;5.13;;;;;;;;;;6106684;23;20021;-82
2022/04/04 07:14:03;;;;;;;9.93;5.53;;;;;;;;;;6105788;23;20017;-84
2022/04/04 07:16:29;;;;;;;7.70;5.03;;;;;;;;;;6105992;23;20053;-84
2022/04/04 07:18:56;;;;;;;7.10;4.85;;;;;;;;;;6105889;23;20049;-81
2022/04/04 07:21:22;;;;;;;9.60;6.13;;;;;;;;;;6131651;23;20019;-82
2022/04/04 07:23:49;;;;;;;16.10;6.38;;;;;;;;;;6106328;23;20021;-85
2022/04/04 07:26:19;;;;;;;11.07;6.90;;;;;;;;;;6130592;23;20013;-83
2022/04/04 07:28:46;;;;;;;22.40;6.57;;;;;;;;;;6130144;23;20462;-83
2022/04/04 07:31:13;;;;;;;9.10;5.55;;;;;;;;;;6105280;23;20092;-83
2022/04/04 07:33:39;;;;;;;14.65;6.13;;;;;;;;;;6129086;23;20044;-84
2022/04/04 07:36:05;;;;;;;9.95;6.38;;;;;;;;;;6104628;23;20100;-84
2022/04/04 07:38:32;;;;;;;11.93;7.43;;;;;;;;;;6103848;23;20096;-84
2022/04/04 07:40:58;;;;;;;10.38;5.82;;;;;;;;;;6129049;23;20022;-83
2022/04/04 07:43:25;;;;;;;8.63;6.30;;;;;;;;;;6130043;23;20037;-84
2022/04/04 07:45:51;;;;;;;13.38;6.35;;;;;;;;;;6130015;23;20018;-83
2022/04/04 07:48:17;;;;;;;15.25;6.68;;;;;;;;;;6104442;23;20027;-83
2022/04/04 07:50:45;;;;;;;11.10;5.90;;;;;;;;;;6099309;23;20064;-84
2022/04/04 07:53:12;;;;;;;9.40;5.03;;;;;;;;;;6123435;23;20045;-83
2022/04/04 07:55:39;;;;;;;8.35;5.38;;;;;;;;;;6099167;23;20045;-83
2022/04/04 07:58:05;;;;;;;11.40;5.15;;;;;;;;;;6123470;23;20022;-84
2022/04/04 08:00:31;;;;;;;10.68;5.32;;;;;;;;;;6123225;23;20022;-84
2022/04/04 08:02:57;;;;;;;7.38;4.45;;;;;;;;;;6123927;23;20057;-84
2022/04/04 08:05:23;;;;;;;6.53;5.03;;;;;;;;;;6098727;23;20025;-84
2022/04/04 08:07:52;;;;;;;7.53;5.20;;;;;;;;;;6098411;23;20057;-84
2022/04/04 08:10:18;;;;;;;9.57;5.75;;;;;;;;;;6122378;23;20018;-84
2022/04/04 08:12:45;;;;;;;10.52;5.40;;;;;;;;;;6123626;23;20089;-83
2022/04/04 08:15:12;;;;;;;5.88;3.53;;;;;;;;;;6098784;23;20018;-84
2022/04/04 08:17:38;;;;;;;7.72;4.47;;;;;;;;;;6099689;23;20521;-84
2022/04/04 08:20:05;;;;;;;7.28;4.45;;;;;;;;;;6099995;23;20014;-84
2022/04/04 08:22:31;;;;;;;9.85;4.35;;;;;;;;;;6124576;23;20124;-84
2022/04/04 08:24:57;;;;;;;5.85;4.60;;;;;;;;;;6100309;23;21027;-85
2022/04/04 08:27:23;;;;;;;4.28;3.40;;;;;;;;;;6098745;23;20032;-84
2022/04/04 08:29:51;;;;;;;4.07;3.58;;;;;;;;;;6124228;23;20076;-84
2022/04/04 08:32:17;;;;;;;6.38;4.03;;;;;;;;;;6099889;23;20018;-84
2022/04/04 08:34:44;;;;;;;7.75;3.40;;;;;;;;;;6100071;23;20018;-84
2022/04/04 08:37:10;;;;;;;6.95;3.75;;;;;;;;;;6125030;23;20028;-84
2022/04/04 08:39:36;;;;;;;4.53;2.88;;;;;;;;;;6100116;23;20022;-84
2022/04/04 08:42:03;;;;;;;5.40;3.97;;;;;;;;;;6124945;23;20022;-84
2022/04/04 08:44:29;;;;;;;6.75;3.70;;;;;;;;;;6124114;23;20026;-84
2022/04/04 08:46:55;;;;;;;5.32;3.05;;;;;;;;;;6100124;23;20319;-84
2022/04/04 08:49:21;;;;;;;5.95;3.85;;;;;;;;;;6098205;23;20057;-84
2022/04/04 08:51:51;;;;;;;4.38;3.40;;;;;;;;;;6124923;23;20081;-84
2022/04/04 08:54:18;;;;;;;14.10;3.70;;;;;;;;;;6101111;23;20065;-84
2022/04/04 08:56:44;;;;;;;6.55;3.13;;;;;;;;;;6100408;23;20045;-84
2022/04/04 08:59:10;;;;;;;4.90;3.03;;;;;;;;;;6100395;23;20022;-84
2022/04/04 09:01:36;;;;;;;3.78;3.17;;;;;;;;;;6099692;23;20454;-84
2022/04/04 09:04:02;;;;;;;6.47;3.35;;;;;;;;;;6100805;23;20018;-84
2022/04/04 09:06:28;;;;;;;8.50;3.75;;;;;;;;;;6123737;23;20033;-84
2022/04/04 09:08:57;;;;;;;5.07;3.30;;;;;;;;;;6098576;23;20349;-84
2022/04/04 09:11:23;;;;;;;5.05;2.88;;;;;;;;;;6100908;23;20021;-84
2022/04/04 09:14:16;;;;;;;6.80;2.83;;;;;;;;;;6121308;23;20022;-84
2022/04/04 09:16:53;;;;;;;3.20;2.78;;;;;;;;;;6121225;23;20065;-84
2022/04/04 09:19:32;;;;;;;2.67;2.40;;;;;;;;;;6098660;23;20077;-83
2022/04/04 09:22:04;;;;;;;4.28;3.03;;;;;;;;;;6127459;23;20018;-84
2022/04/04 09:24:46;;;;;;;4.35;2.63;;;;;;;;;;6101925;23;20053;-84
2022/04/04 09:27:21;;;;;;;3.78;2.80;;;;;;;;;;6101367;23;20375;-84
2022/04/04 09:29:48;;;;;;;3.10;1.92;;;;;;;;;;6101314;23;20071;-84
2022/04/04 09:32:17;;;;;;;4.95;2.30;;;;;;;;;;6126140;23;20094;-84
2022/04/04 09:34:49;;;;;;;3.85;2.55;;;;;;;;;;6124373;23;20026;-84
2022/04/04 09:37:16;;;;;;;3.92;2.22;;;;;;;;;;6125375;23;20100;-84
2022/04/04 09:39:42;;;;;;;4.03;2.85;;;;;;;;;;6125554;23;20018;-84
2022/04/04 09:42:16;;;;;;;4.03;2.20;;;;;;;;;;6124283;23;20041;-84
2022/04/04 09:44:42;;;;;;;3.88;2.63;;;;;;;;;;6125818;23;20358;-84
2022/04/04 09:47:08;;;;;;;7.80;2.85;;;;;;;;;;6100953;23;20021;-84
2022/04/04 09:49:44;;;;;;;3.42;2.63;;;;;;;;;;6100767;23;20383;-84
2022/04/04 09:52:10;;;;;;;3.08;2.30;;;;;;;;;;6157060;23;20021;-84
2022/04/04 09:54:41;;;;;;;2.45;1.80;;;;;;;;;;6157661;23;20156;-83
2022/04/04 09:57:12;;;;;;;5.28;2.22;;;;;;;;;;6106460;23;20021;-85
2022/04/04 09:59:39;;;;;;;3.63;2.65;;;;;;;;;;6130895;23;20021;-85
2022/04/04 10:02:05;;;;;;;4.80;2.15;;;;;;;;;;6157919;23;20069;-85
2022/04/04 10:04:35;;;;;;;6.60;2.50;;;;;;;;;;6130417;23;20045;-84
2022/04/04 10:07:04;;;;;;;4.05;2.50;;;;;;;;;;6105371;23;20049;-85
2022/04/04 10:09:30;;;;;;;7.40;2.63;;;;;;;;;;6156332;23;20068;-85
2022/04/04 10:11:58;;;;;;;4.90;2.42;;;;;;;;;;6156513;23;20514;-85
2022/04/04 10:14:24;;;;;;;4.20;1.83;;;;;;;;;;6106289;23;20020;-84
2022/04/04 10:16:55;;;;;;;3.05;1.70;;;;;;;;;;6155434;23;20052;-85
2022/04/04 10:19:24;;;;;;;5.63;2.03;;;;;;;;;;6154981;23;20017;-84
2022/04/04 10:21:50;;;;;;;3.42;2.20;;;;;;;;;;6156615;23;20632;-85
2022/04/04 10:24:16;;;;;;;3.45;1.80;;;;;;;;;;6130619;23;20466;-85
2022/04/04 10:26:47;;;;;;;4.30;2.28;;;;;;;;;;6130122;23;20473;-85
2022/04/04 10:29:15;;;;;;;2.97;1.83;;;;;;;;;;6128900;23;20080;-84
2022/04/04 10:31:51;;;;;;;2.20;1.88;;;;;;;;;;6129747;23;20032;-85
2022/04/04 10:34:18;;;;;;;2.92;1.77;;;;;;;;;;6128521;23;20018;-84
2022/04/04 10:37:07;;;;;;;2.70;1.83;;;;;;;;;;6129902;23;20022;-85
2022/04/04 10:39:41;;;;;;;2.53;1.73;;;;;;;;;;6130130;23;20053;-84
2022/04/04 10:42:27;;;;;;;2.70;1.70;;;;;;;;;;6130109;23;20032;-84
2022/04/04 10:45:00;;;;;;;3.22;1.30;;;;;;;;;;6105566;23;20018;-86
2022/04/04 10:47:28;;;;;;;4.20;1.38;;;;;;;;;;6155290;23;20021;-87
2022/04/04 10:49:58;;;;;;;4.18;1.38;;;;;;;;;;6106403;23;20020;-86
2022/04/04 10:52:44;;;;;;;1.88;1.33;;;;;;;;;;6106753;23;20439;-86
2022/04/04 10:55:30;;;;;;;1.60;1.27;;;;;;;;;;6132183;23;20018;-84
2022/04/04 10:57:59;;;;;;;0.85;0.85;;;;;;;;;;6131276;23;20101;-87
2022/04/04 11:00:33;;;;;;;3.35;1.65;;;;;;;;;;6131898;23;20481;-87
2022/04/04 11:03:01;;;;;;;4.40;2.15;;;;;;;;;;6106801;23;20025;-87
2022/04/04 11:08:13;;;;;;;1.10;0.77;;;;;;;;;;6131189;23;20021;-87
2022/04/04 11:10:47;;;;;;;1.50;1.38;;;;;;;;;;6106418;23;20029;-87
2022/04/04 11:13:17;;;;;;;1.65;1.23;;;;;;;;;;6105378;23;20077;-88
2022/04/04 11:15:44;;;;;;;1.52;0.82;;;;;;;;;;6131623;23;20354;-87
2022/04/04 11:18:11;;;;;;;2.13;1.17;;;;;;;;;;6131586;23;20063;-87
2022/04/04 11:20:43;;;;;;;2.47;1.10;;;;;;;;;;6131944;23;20382;-86
2022/04/04 11:23:11;;;;;;;1.27;1.20;;;;;;;;;;6157093;23;20026;-86
2022/04/04 11:25:38;;;;;;;1.30;1.00;;;;;;;;;;6131944;23;20091;-85
2022/04/04 11:28:07;;;;;;;1.60;0.95;;;;;;;;;;6158693;23;20022;-86
2022/04/04 11:30:33;;;;;;;1.15;0.80;;;;;;;;;;6157502;23;20052;-86
2022/04/04 11:33:00;;;;;;;0.80;0.80;;;;;;;;;;6131040;23;20044;-86
2022/04/04 11:35:32;;;;;;;1.88;1.00;;;;;;;;;;6130135;23;20049;-87
2022/04/04 11:38:00;;;;;;;2.08;0.90;;;;;;;;;;6130462;23;20022;-88
2022/04/04 11:40:34;;;;;;;1.17;1.10;;;;;;;;;;6106815;23;20603;-88
2022/04/04 11:43:02;;;;;;;0.80;0.80;;;;;;;;;;6130659;23;20021;-87
2022/04/04 11:45:30;;;;;;;0.80;0.80;;;;;;;;;;6157275;23;20044;-89
2022/04/04 11:47:56;;;;;;;2.40;0.90;;;;;;;;;;6130901;23;20025;-87
2022/04/04 11:50:25;;;;;;;0.93;0.70;;;;;;;;;;6100875;23;20447;-88
2022/04/04 11:53:00;;;;;;;1.15;0.95;;;;;;;;;;6102125;23;20071;-87
2022/04/04 11:55:27;;;;;;;0.60;0.60;;;;;;;;;;6102049;23;20077;-90
2022/04/04 11:57:58;;;;;;;1.10;1.02;;;;;;;;;;6127225;23;20338;-89
2022/04/04 12:00:35;;;;;;;1.30;0.98;;;;;;;;;;6102851;23;20066;-92
2022/04/04 12:03:10;;;;;;;1.92;1.70;;;;;;;;;;6102236;23;20070;-90
2022/04/04 12:05:37;;;;;;;3.47;1.52;;;;;;;;;;6102235;23;20458;-91
2022/04/04 12:08:03;;;;;;;3.67;1.10;;;;;;;;;;6102027;23;20021;-91
2022/04/04 12:10:31;;;;;;;1.33;1.23;;;;;;;;;;6124210;23;20395;-90
2022/04/04 12:12:58;;;;;;;2.33;1.35;;;;;;;;;;6126999;23;20081;-90
2022/04/04 12:15:28;;;;;;;3.92;2.25;;;;;;;;;;6101613;23;20046;-89
2022/04/04 12:17:54;;;;;;;3.03;1.45;;;;;;;;;;6126716;23;20064;-88
2022/04/04 12:20:20;;;;;;;1.58;1.45;;;;;;;;;;6128171;23;20018;-90
2022/04/04 12:25:32;;;;;;;1.30;1.10;;;;;;;;;;6126625;23;20018;-87
2022/04/04 12:27:59;;;;;;;2.17;0.90;;;;;;;;;;6125968;23;20026;-90
2022/04/04 12:30:30;;;;;;;1.20;1.10;;;;;;;;;;6127841;23;20097;-89
2022/04/04 12:33:06;;;;;;;3.45;1.13;;;;;;;;;;6127786;23;20022;-88
2022/04/04 12:35:32;;;;;;;1.40;1.30;;;;;;;;;;6126843;23;20076;-89
2022/04/04 12:37:59;;;;;;;2.03;1.60;;;;;;;;;;6125722;23;20022;-87
2022/04/04 12:40:28;;;;;;;2.88;1.30;;;;;;;;;;6126456;23;20368;-86
2022/04/04 12:43:04;;;;;;;4.18;1.85;;;;;;;;;;6125894;23;20018;-90
2022/04/04 12:45:31;;;;;;;1.38;1.27;;;;;;;;;;6125842;23;20358;-86
2022/04/04 12:47:58;;;;;;;5.70;1.80;;;;;;;;;;6125690;23;20037;-91
2022/04/04 12:50:25;;;;;;;1.60;1.33;;;;;;;;;;6125904;23;20022;-87
2022/04/04 12:52:58;;;;;;;1.67;1.58;;;;;;;;;;6101270;23;20018;-88
2022/04/04 12:55:24;;;;;;;1.75;1.65;;;;;;;;;;6126094;23;20110;-91
2022/04/04 12:57:51;;;;;;;1.40;1.30;;;;;;;;;;6101554;23;20021;-89
2022/04/04 13:00:27;;;;;;;4.30;1.90;;;;;;;;;;6125868;23;20029;-90
2022/04/04 13:02:53;;;;;;;2.78;1.48;;;;;;;;;;6126104;23;20447;-86
2022/04/04 13:05:19;;;;;;;2.00;1.80;;;;;;;;;;6125865;23;20431;-87
2022/04/04 13:07:53;;;;;;;2.20;1.83;;;;;;;;;;6126342;23;20044;-88
2022/04/04 13:10:23;;;;;;;1.95;1.55;;;;;;;;;;6101519;23;20049;-87
2022/04/04 13:12:49;;;;;;;4.57;2.20;;;;;;;;;;6125743;23;20021;-88
2022/04/04 13:15:35;;;;;;;3.15;2.13;;;;;;;;;;6126454;23;20080;-87
2022/04/04 13:18:01;;;;;;;9.77;3.03;;;;;;;;;;6101090;23;20447;-89
2022/04/04 13:20:27;;;;;;;4.80;2.17;;;;;;;;;;6125531;23;20022;-88
2022/04/04 13:22:53;;;;;;;1.90;1.80;;;;;;;;;;6124912;23;20457;-89
2022/04/04 13:25:19;;;;;;;2.92;1.48;;;;;;;;;;6101830;23;20018;-88
2022/04/04 13:27:45;;;;;;;2.92;1.20;;;;;;;;;;6125643;23;20018;-88
2022/04/04 13:30:13;;;;;;;5.07;2.75;;;;;;;;;;6125324;23;20029;-87
2022/04/04 13:32:40;;;;;;;2.22;1.50;;;;;;;;;;6126957;23;20028;-88
2022/04/04 13:35:06;;;;;;;5.80;2.40;;;;;;;;;;6124567;23;20024;-88
2022/04/04 13:37:32;;;;;;;3.40;2.40;;;;;;;;;;6101655;23;20387;-89
2022/04/04 13:39:59;;;;;;;2.83;2.17;;;;;;;;;;6124983;23;20029;-88
2022/04/04 13:42:25;;;;;;;4.03;1.55;;;;;;;;;;6101490;23;20021;-86
2022/04/04 13:44:51;;;;;;;4.40;3.45;;;;;;;;;;6123718;23;20519;-86
2022/04/04 13:47:18;;;;;;;7.60;2.13;;;;;;;;;;6124791;23;20355;-86
2022/04/04 13:49:44;;;;;;;4.53;2.63;;;;;;;;;;6123869;23;20021;-87
2022/04/04 13:52:13;;;;;;;2.65;2.40;;;;;;;;;;6121926;23;20033;-86
2022/04/04 13:54:40;;;;;;;2.55;1.95;;;;;;;;;;6126264;23;20324;-87
2022/04/04 13:57:06;;;;;;;3.10;1.80;;;;;;;;;;6124416;23;20398;-86
2022/04/04 13:59:32;;;;;;;3.05;1.90;;;;;;;;;;6124714;23;20383;-87
2022/04/04 14:01:58;;;;;;;3.13;2.00;;;;;;;;;;6125032;23;20030;-87
2022/04/04 14:04:25;;;;;;;5.00;2.22;;;;;;;;;;6101497;23;20147;-87
2022/04/04 14:06:51;;;;;;;7.38;3.40;;;;;;;;;;6125729;23;20022;-87
2022/04/04 14:09:17;;;;;;;9.60;2.80;;;;;;;;;;6126717;23;20060;-86
2022/04/04 14:11:43;;;;;;;11.07;3.00;;;;;;;;;;6129067;23;20018;-87
2022/04/04 14:14:13;;;;;;;12.75;3.97;;;;;;;;;;6127081;23;20018;-87
2022/04/04 14:16:39;;;;;;;7.93;2.30;;;;;;;;;;6128114;23;20025;-87
2022/04/04 14:19:05;;;;;;;13.43;4.05;;;;;;;;;;6129701;23;20068;-86
2022/04/04 14:21:31;;;;;;;11.15;3.47;;;;;;;;;;6126721;23;20026;-87
2022/04/04 14:23:58;;;;;;;11.68;2.58;;;;;;;;;;6128710;23;20022;-87
2022/04/04 14:26:25;;;;;;;10.27;3.67;;;;;;;;;;6104058;23;20014;-86
2022/04/04 14:28:51;;;;;;;11.50;3.83;;;;;;;;;;6128442;23;20112;-86
2022/04/04 14:31:18;;;;;;;12.05;4.50;;;;;;;;;;6128463;23;20455;-87
2022/04/04 14:33:44;;;;;;;16.75;3.67;;;;;;;;;;6102257;23;20054;-86
2022/04/04 14:36:10;;;;;;;25.30;5.75;;;;;;;;;;6127391;23;20049;-86
2022/04/04 14:38:37;;;;;;;13.55;4.60;;;;;;;;;;6102841;23;20018;-86
2022/04/04 14:41:06;;;;;;;13.90;4.15;;;;;;;;;;6127854;23;20022;-86
2022/04/04 14:43:32;;;;;;;11.15;4.78;;;;;;;;;;6128531;23;20065;-86